Time;durP1;ratioP1;P1;durP2;ratioP2;P2;SDS_P1;SDS_P2;PMS_P1;PMS_P2;Temp;Humidity;BMP_temperature;BMP_pressure;BME280_temperature;BME280_humidity;BME280_pressure;Samples;Min_cycle;Max_cycle;Signal;HPM_P1;HPM_P2
2023/09/10 14:01:13;;;;;;;5.30;2.80;;;;;;;23.00;65.94;100642.09;103628;1282;60194;-63
2023/09/10 14:03:40;;;;;;;4.30;2.90;;;;;;;22.82;68.92;100642.94;105721;1265;59656;-61
2023/09/10 14:06:08;;;;;;;3.50;2.60;;;;;;;22.73;73.49;100644.79;105301;1262;59647;-61
2023/09/10 14:08:36;;;;;;;4.80;2.70;;;;;;;22.71;75.31;100640.10;105839;1266;60057;-62
2023/09/10 14:11:03;;;;;;;4.10;2.50;;;;;;;22.72;76.41;100637.23;105390;1260;71767;-60
2023/09/10 14:13:30;;;;;;;4.10;2.70;;;;;;;22.65;76.97;100638.52;105361;1261;65987;-60
2023/09/10 14:15:57;;;;;;;6.10;2.80;;;;;;;22.58;78.15;100637.56;105194;1261;71827;-60
2023/09/10 14:18:24;;;;;;;4.60;2.50;;;;;;;22.58;79.19;100634.80;105622;1266;60488;-61
2023/09/10 14:20:52;;;;;;;5.00;3.10;;;;;;;22.57;81.15;100633.62;105260;1263;59609;-61
2023/09/10 14:23:19;;;;;;;5.70;2.50;;;;;;;22.52;81.70;100632.36;105160;1261;73415;-60
2023/09/10 14:25:48;;;;;;;3.30;2.60;;;;;;;22.48;80.44;100630.55;105125;1264;65963;-59
2023/09/10 14:28:15;;;;;;;4.00;3.10;;;;;;;22.43;81.59;100632.80;105302;1260;71716;-59
2023/09/10 14:30:42;;;;;;;4.70;3.00;;;;;;;22.35;83.77;100631.34;104945;1260;60196;-60
2023/09/10 14:33:08;;;;;;;5.30;3.20;;;;;;;22.26;86.34;100629.25;105374;1261;60329;-61
2023/09/10 14:35:36;;;;;;;3.60;2.30;;;;;;;22.18;89.84;100632.09;105759;1254;73127;-60
2023/09/10 14:38:04;;;;;;;9.80;3.00;;;;;;;22.08;91.13;100634.45;105545;1254;67104;-60
2023/09/10 14:40:31;;;;;;;4.30;2.70;;;;;;;22.02;91.64;100631.95;106077;1254;72323;-62
2023/09/10 14:42:58;;;;;;;4.10;2.60;;;;;;;21.96;90.13;100628.70;105684;1254;59989;-62
2023/09/10 14:45:25;;;;;;;5.00;2.80;;;;;;;21.89;91.97;100628.41;105840;1254;59640;-60
2023/09/10 14:47:53;;;;;;;6.00;2.90;;;;;;;21.82;93.69;100628.82;105531;1257;72896;-60
2023/09/10 14:50:20;;;;;;;4.70;3.20;;;;;;;21.73;95.22;100628.54;105664;1258;66939;-63
2023/09/10 14:52:47;;;;;;;4.70;3.00;;;;;;;21.60;95.54;100628.30;105521;1254;73050;-60
2023/09/10 14:55:14;;;;;;;4.20;2.80;;;;;;;21.48;97.26;100631.48;105634;1257;60265;-60
2023/09/10 14:57:41;;;;;;;4.30;3.00;;;;;;;21.38;97.89;100625.52;105642;1256;59632;-59
2023/09/10 15:00:08;;;;;;;4.60;3.00;;;;;;;21.27;98.80;100625.08;105682;1254;72973;-60
2023/09/10 15:02:35;;;;;;;5.70;2.90;;;;;;;21.15;99.68;100625.52;105952;1254;67321;-63
2023/09/10 15:05:07;;;;;;;10.90;3.60;;;;;;;21.02;100.00;100631.89;106030;1258;72702;-60
2023/09/10 15:07:34;;;;;;;7.40;4.30;;;;;;;20.89;100.00;100632.70;105756;1259;59733;-61
2023/09/10 15:10:01;;;;;;;5.90;3.40;;;;;;;20.77;100.00;100633.15;105585;1254;60358;-60
2023/09/10 15:12:28;;;;;;;3.70;2.50;;;;;;;20.64;100.00;100636.92;105992;1254;72838;-61
2023/09/10 15:14:55;;;;;;;6.30;3.00;;;;;;;20.51;100.00;100633.52;105942;1259;68562;-61
2023/09/10 15:17:22;;;;;;;5.10;2.80;;;;;;;20.40;100.00;100639.39;105570;1254;72740;-59
2023/09/10 15:19:49;;;;;;;8.40;3.30;;;;;;;20.28;100.00;100640.46;105726;1259;59716;-62
2023/09/10 15:22:16;;;;;;;6.80;3.10;;;;;;;20.17;100.00;100640.20;105637;1255;59529;-62
2023/09/10 15:24:43;;;;;;;12.40;4.40;;;;;;;20.07;100.00;100641.92;106027;1259;73205;-63
2023/09/10 15:27:11;;;;;;;19.20;5.20;;;;;;;19.96;100.00;100640.02;105918;1256;66475;-62
2023/09/10 15:29:38;;;;;;;16.40;6.70;;;;;;;19.84;100.00;100639.37;105620;1259;71094;-60
2023/09/10 15:32:05;;;;;;;12.50;5.50;;;;;;;19.72;100.00;100638.87;105690;1254;59331;-60
2023/09/10 15:34:33;;;;;;;13.00;7.10;;;;;;;19.58;100.00;100639.67;105578;1254;60416;-63
2023/09/10 15:36:59;;;;;;;9.70;5.50;;;;;;;19.43;100.00;100636.51;105427;1254;73008;-63
2023/09/10 15:39:28;;;;;;;9.40;4.70;;;;;;;19.29;100.00;100639.36;105720;1258;68074;-61
2023/09/10 15:41:55;;;;;;;9.00;4.90;;;;;;;19.15;100.00;100637.26;105541;1254;72423;-60
2023/09/10 15:44:22;;;;;;;12.30;4.30;;;;;;;19.00;100.00;100637.67;105745;1259;60186;-60
2023/09/10 15:46:49;;;;;;;8.90;4.50;;;;;;;18.85;100.00;100639.67;105674;1260;59629;-60
2023/09/10 15:49:16;;;;;;;10.00;4.60;;;;;;;18.69;100.00;100643.30;105985;1257;73044;-62
2023/09/10 15:51:44;;;;;;;12.00;4.70;;;;;;;18.55;100.00;100637.18;105263;1254;68222;-60
2023/09/10 15:54:10;;;;;;;9.10;4.30;;;;;;;18.42;100.00;100638.55;105627;1254;72534;-61
2023/09/10 15:56:37;;;;;;;8.90;5.10;;;;;;;18.30;100.00;100635.88;105628;1254;60359;-61
2023/09/10 15:59:04;;;;;;;16.00;9.00;;;;;;;18.18;100.00;100636.97;105610;1257;59631;-60
2023/09/10 16:01:32;;;;;;;19.50;11.40;;;;;;;18.06;100.00;100640.45;105726;1254;71782;-61
2023/09/10 16:03:59;;;;;;;30.10;17.40;;;;;;;17.94;100.00;100639.77;105664;1256;66644;-60
2023/09/10 16:06:26;;;;;;;35.50;19.50;;;;;;;17.84;100.00;100644.02;105826;1254;72783;-61
2023/09/10 16:08:54;;;;;;;26.30;15.30;;;;;;;17.76;100.00;100644.14;105871;1260;60161;-61
2023/09/10 16:11:21;;;;;;;17.50;10.30;;;;;;;17.69;100.00;100641.52;105825;1254;60193;-63
2023/09/10 16:13:48;;;;;;;14.40;7.50;;;;;;;17.63;100.00;100644.71;105541;1254;70800;-60
2023/09/10 16:16:15;;;;;;;9.10;5.40;;;;;;;17.57;100.00;100639.49;105587;1257;65809;-62
2023/09/10 16:18:42;;;;;;;11.50;4.80;;;;;;;17.55;100.00;100642.65;105711;1254;72586;-61
2023/09/10 16:21:09;;;;;;;7.70;4.10;;;;;;;17.53;100.00;100643.27;105668;1254;60172;-61
2023/09/10 16:23:36;;;;;;;7.40;3.60;;;;;;;17.54;100.00;100642.78;106072;1257;59470;-60
2023/09/10 16:26:04;;;;;;;9.30;4.40;;;;;;;17.55;100.00;100643.66;105765;1254;72901;-61
2023/09/10 16:28:31;;;;;;;4.60;3.30;;;;;;;17.58;100.00;100644.93;105760;1258;65846;-63
2023/09/10 16:30:58;;;;;;;5.60;3.10;;;;;;;17.62;100.00;100643.10;105886;1254;71388;-60
2023/09/10 16:33:25;;;;;;;5.40;2.80;;;;;;;17.68;100.00;100644.70;105655;1254;60415;-61
2023/09/10 16:35:52;;;;;;;4.90;3.50;;;;;;;17.72;100.00;100650.21;105639;1256;60387;-61
2023/09/10 16:38:19;;;;;;;5.10;3.00;;;;;;;17.77;100.00;100651.84;105762;1254;73664;-61
2023/09/10 16:40:46;;;;;;;5.10;3.70;;;;;;;17.79;100.00;100655.91;105965;1256;67291;-64
2023/09/10 16:43:13;;;;;;;6.40;4.10;;;;;;;17.81;100.00;100656.75;105735;1254;70591;-61
2023/09/10 16:45:40;;;;;;;10.00;4.80;;;;;;;17.81;100.00;100657.61;105700;1254;60937;-61
2023/09/10 16:48:07;;;;;;;6.20;4.50;;;;;;;17.78;100.00;100658.77;105448;1254;60527;-60
2023/09/10 16:50:34;;;;;;;7.70;4.10;;;;;;;17.72;100.00;100662.81;105686;1254;73924;-63
2023/09/10 16:53:02;;;;;;;5.50;3.90;;;;;;;17.66;100.00;100663.70;105520;1258;65728;-60
2023/09/10 16:55:30;;;;;;;5.90;3.80;;;;;;;17.60;100.00;100666.81;105705;1254;72167;-62
2023/09/10 16:57:57;;;;;;;5.10;3.50;;;;;;;17.52;100.00;100670.98;105653;1254;60433;-60
2023/09/10 17:00:23;;;;;;;5.30;3.20;;;;;;;17.44;100.00;100674.64;105872;1254;60470;-60
2023/09/10 17:02:52;;;;;;;5.20;3.40;;;;;;;17.36;100.00;100673.05;105690;1258;73962;-62
2023/09/10 17:05:19;;;;;;;5.10;3.60;;;;;;;17.26;100.00;100669.98;106114;1254;67190;-62
2023/09/10 17:07:47;;;;;;;5.90;3.70;;;;;;;17.18;100.00;100670.05;105481;1255;72959;-60
2023/09/10 17:10:14;;;;;;;6.20;3.60;;;;;;;17.10;100.00;100670.96;105741;1259;60502;-60
2023/09/10 17:12:41;;;;;;;5.50;3.80;;;;;;;17.03;100.00;100674.44;105991;1254;60916;-63
2023/09/10 17:15:09;;;;;;;7.30;4.00;;;;;;;16.94;100.00;100679.88;105781;1258;74590;-60
2023/09/10 17:17:39;;;;;;;6.20;3.60;;;;;;;16.87;100.00;100680.20;105979;1258;67246;-62
2023/09/10 17:20:09;;;;;;;5.20;3.50;;;;;;;16.82;100.00;100680.48;105349;1254;73250;-60
2023/09/10 17:22:36;;;;;;;5.70;3.40;;;;;;;16.75;100.00;100680.66;105753;1254;60450;-63
2023/09/10 17:25:04;;;;;;;5.40;3.60;;;;;;;16.69;100.00;100681.14;105631;1260;60997;-60
2023/09/10 17:27:31;;;;;;;5.40;3.60;;;;;;;16.65;100.00;100682.37;105664;1254;73791;-62
2023/09/10 17:29:58;;;;;;;5.20;3.50;;;;;;;16.61;100.00;100686.64;105492;1254;67195;-60
2023/09/10 17:32:25;;;;;;;5.40;3.70;;;;;;;16.58;100.00;100684.35;105823;1259;72711;-61
2023/09/10 17:34:52;;;;;;;4.90;3.50;;;;;;;16.55;100.00;100683.98;105524;1254;59843;-63
2023/09/10 17:37:22;;;;;;;7.20;3.60;;;;;;;16.50;100.00;100681.81;105753;1259;61181;-60
2023/09/10 17:39:50;;;;;;;5.80;3.50;;;;;;;16.46;100.00;100680.50;105845;1259;75076;-61
2023/09/10 17:42:19;;;;;;;4.10;2.90;;;;;;;16.43;100.00;100682.66;105700;1258;66740;-60
2023/09/10 17:44:51;;;;;;;5.80;3.60;;;;;;;16.41;100.00;100684.05;105430;1254;71141;-60
2023/09/10 17:47:28;;;;;;;6.10;3.70;;;;;;;16.41;100.00;100682.56;105686;1259;61139;-61
2023/09/10 17:49:56;;;;;;;7.90;3.70;;;;;;;16.40;100.00;100686.13;105677;1254;60948;-62
2023/09/10 17:52:34;;;;;;;5.60;3.20;;;;;;;16.40;100.00;100685.88;105601;1254;72511;-61
2023/09/10 17:55:04;;;;;;;4.30;3.40;;;;;;;16.37;100.00;100687.23;105749;1254;69210;-60
2023/09/10 17:57:31;;;;;;;4.60;3.30;;;;;;;16.33;100.00;100688.02;106039;1258;71231;-62
2023/09/10 17:59:58;;;;;;;5.20;3.20;;;;;;;16.29;100.00;100684.15;105432;1258;61058;-60
2023/09/10 18:02:26;;;;;;;7.10;3.70;;;;;;;16.24;100.00;100685.52;105784;1259;60429;-60
2023/09/10 18:04:53;;;;;;;6.30;3.60;;;;;;;16.20;100.00;100682.62;105861;1258;72094;-61
2023/09/10 18:07:20;;;;;;;4.90;3.30;;;;;;;16.14;100.00;100685.84;105571;1254;67228;-60
2023/09/10 18:09:49;;;;;;;5.90;3.70;;;;;;;16.08;100.00;100685.30;105755;1259;72500;-61
2023/09/10 18:12:17;;;;;;;4.80;3.50;;;;;;;16.00;100.00;100685.77;105609;1259;61704;-60
2023/09/10 18:14:44;;;;;;;6.00;3.00;;;;;;;15.95;100.00;100686.56;106089;1254;60358;-61
2023/09/10 18:17:12;;;;;;;5.90;3.30;;;;;;;15.91;100.00;100688.71;105494;1254;74007;-60
2023/09/10 18:19:39;;;;;;;5.80;3.00;;;;;;;15.86;100.00;100685.86;105743;1254;65629;-61
2023/09/10 18:22:06;;;;;;;6.40;3.70;;;;;;;15.79;100.00;100686.36;105675;1254;71078;-60
2023/09/10 18:24:34;;;;;;;4.20;2.90;;;;;;;15.72;100.00;100689.54;105750;1259;60530;-60
2023/09/10 18:27:01;;;;;;;7.30;3.30;;;;;;;15.68;100.00;100692.95;105767;1259;60508;-64
2023/09/10 18:29:28;;;;;;;4.10;2.90;;;;;;;15.64;100.00;100694.86;105658;1254;73699;-62
2023/09/10 18:31:56;;;;;;;10.00;3.70;;;;;;;15.62;100.00;100694.64;105655;1254;69022;-62
2023/09/10 18:34:23;;;;;;;6.50;4.30;;;;;;;15.59;100.00;100692.61;105791;1254;72883;-63
2023/09/10 18:36:50;;;;;;;5.00;3.30;;;;;;;15.55;100.00;100697.14;105664;1259;60799;-61
2023/09/10 18:39:17;;;;;;;7.00;4.00;;;;;;;15.52;100.00;100695.73;105610;1254;62113;-63
2023/09/10 18:41:44;;;;;;;5.10;3.40;;;;;;;15.50;100.00;100698.45;105822;1254;73829;-62
2023/09/10 18:44:11;;;;;;;5.30;3.30;;;;;;;15.48;100.00;100695.40;105702;1254;67193;-62
2023/09/10 18:46:38;;;;;;;4.80;3.60;;;;;;;15.45;100.00;100698.84;105905;1254;73157;-61
2023/09/10 18:49:05;;;;;;;6.90;3.60;;;;;;;15.43;100.00;100698.25;105739;1254;60471;-66
2023/09/10 18:51:33;;;;;;;7.40;3.90;;;;;;;15.40;100.00;100700.23;105514;1254;61326;-63
2023/09/10 18:54:00;;;;;;;5.20;3.60;;;;;;;15.37;100.00;100699.34;105700;1254;74138;-64
2023/09/10 18:56:27;;;;;;;5.90;3.40;;;;;;;15.35;100.00;100701.25;105879;1254;66055;-62
2023/09/10 18:58:55;;;;;;;5.30;3.60;;;;;;;15.31;100.00;100695.95;105402;1254;72561;-64
2023/09/10 19:01:22;;;;;;;5.60;3.60;;;;;;;15.27;100.00;100695.96;105678;1259;61855;-63
2023/09/10 19:03:49;;;;;;;5.30;3.60;;;;;;;15.24;100.00;100696.04;105628;1254;60376;-63
2023/09/10 19:06:16;;;;;;;6.50;3.60;;;;;;;15.21;100.00;100698.14;105632;1254;75361;-64
2023/09/10 19:08:43;;;;;;;5.30;3.30;;;;;;;15.19;100.00;100695.44;105795;1254;67187;-62
2023/09/10 19:11:10;;;;;;;4.90;3.70;;;;;;;15.18;100.00;100696.84;105427;1254;72502;-60
2023/09/10 19:13:37;;;;;;;4.60;3.40;;;;;;;15.15;100.00;100696.60;105579;1260;60376;-63
2023/09/10 19:16:05;;;;;;;5.60;4.00;;;;;;;15.13;100.00;100699.72;105758;1254;61187;-64
2023/09/10 19:18:32;;;;;;;6.10;3.90;;;;;;;15.11;100.00;100698.42;105400;1258;75413;-63
2023/09/10 19:20:59;;;;;;;6.40;4.20;;;;;;;15.07;100.00;100698.86;105376;1258;66970;-67
2023/09/10 19:23:26;;;;;;;6.80;4.00;;;;;;;15.03;100.00;100703.52;105330;1254;71891;-64
2023/09/10 19:25:53;;;;;;;5.30;4.10;;;;;;;14.97;100.00;100704.31;105615;1254;60614;-65
2023/09/10 19:28:20;;;;;;;8.90;4.40;;;;;;;14.91;100.00;100703.17;105800;1256;60435;-66
2023/09/10 19:30:51;;;;;;;10.70;4.90;;;;;;;14.85;100.00;100703.33;105407;1259;73715;-64
2023/09/10 19:33:18;;;;;;;5.70;4.40;;;;;;;14.82;100.00;100702.92;105485;1254;67357;-64
2023/09/10 19:35:46;;;;;;;7.90;5.00;;;;;;;14.78;100.00;100703.41;105836;1254;74028;-63
2023/09/10 19:38:13;;;;;;;6.30;4.90;;;;;;;14.75;100.00;100704.17;106086;1259;60409;-65
2023/09/10 19:40:40;;;;;;;5.80;4.60;;;;;;;14.73;100.00;100704.40;105658;1254;60817;-65
2023/09/10 19:43:07;;;;;;;6.10;4.80;;;;;;;14.70;100.00;100703.02;105812;1259;72384;-66
2023/09/10 19:45:33;;;;;;;6.80;4.70;;;;;;;14.65;100.00;100704.55;105526;1254;67192;-66
2023/09/10 19:48:00;;;;;;;6.00;4.70;;;;;;;14.60;100.00;100703.96;106048;1260;72706;-64
2023/09/10 19:50:27;;;;;;;8.50;4.60;;;;;;;14.52;100.00;100702.73;105851;1258;60591;-64
2023/09/10 19:52:54;;;;;;;7.10;5.30;;;;;;;14.48;100.00;100705.17;105485;1258;60361;-64
2023/09/10 19:55:21;;;;;;;7.10;4.90;;;;;;;14.45;100.00;100707.33;105860;1259;72378;-66
2023/09/10 19:57:48;;;;;;;6.70;5.00;;;;;;;14.41;100.00;100705.66;105631;1254;66907;-65
2023/09/10 20:00:16;;;;;;;7.90;5.60;;;;;;;14.35;100.00;100708.42;105950;1258;72764;-65
2023/09/10 20:02:43;;;;;;;8.90;6.10;;;;;;;14.29;100.00;100704.73;105698;1258;63077;-62
2023/09/10 20:05:10;;;;;;;8.30;5.90;;;;;;;14.26;100.00;100709.36;105557;1259;60300;-63
2023/09/10 20:07:40;;;;;;;7.20;5.10;;;;;;;14.23;100.00;100710.84;106043;1256;73887;-65
2023/09/10 20:10:08;;;;;;;9.50;4.90;;;;;;;14.20;100.00;100714.70;105847;1254;67171;-65
2023/09/10 20:12:35;;;;;;;8.10;5.40;;;;;;;14.19;100.00;100715.05;106016;1254;72807;-63
2023/09/10 20:15:05;;;;;;;7.10;5.20;;;;;;;14.17;100.00;100714.09;105673;1260;60338;-61
2023/09/10 20:17:32;;;;;;;8.00;6.20;;;;;;;14.13;100.00;100717.83;105697;1254;60470;-64
2023/09/10 20:19:59;;;;;;;10.30;6.40;;;;;;;14.10;100.00;100718.94;105696;1254;71724;-61
2023/09/10 20:22:26;;;;;;;7.70;5.30;;;;;;;14.07;100.00;100718.60;105518;1259;66041;-63
2023/09/10 20:24:53;;;;;;;9.80;6.60;;;;;;;14.02;100.00;100720.95;105603;1259;73572;-61
2023/09/10 20:27:21;;;;;;;9.00;6.90;;;;;;;13.97;100.00;100723.27;105597;1259;60429;-66
2023/09/10 20:29:48;;;;;;;9.70;7.10;;;;;;;13.90;100.00;100722.21;106039;1259;60354;-63
2023/09/10 20:32:15;;;;;;;9.80;7.70;;;;;;;13.82;100.00;100722.81;105690;1254;74346;-62
2023/09/10 20:34:42;;;;;;;10.80;8.00;;;;;;;13.70;100.00;100724.35;106013;1254;66055;-68
2023/09/10 20:37:09;;;;;;;12.20;7.40;;;;;;;13.54;100.00;100728.41;105569;1256;71520;-64
2023/09/10 20:39:36;;;;;;;11.50;8.10;;;;;;;13.39;100.00;100731.54;105869;1259;60362;-63
2023/09/10 20:42:04;;;;;;;10.50;7.40;;;;;;;13.26;100.00;100732.61;105623;1256;60302;-62
2023/09/10 20:44:31;;;;;;;15.10;8.20;;;;;;;13.14;100.00;100738.88;105515;1259;73987;-64
2023/09/10 20:46:58;;;;;;;10.40;6.80;;;;;;;13.03;100.00;100739.52;105818;1257;67163;-64
2023/09/10 20:49:25;;;;;;;12.70;8.10;;;;;;;12.93;100.00;100738.52;105975;1257;71520;-61
2023/09/10 20:51:55;;;;;;;10.20;8.20;;;;;;;12.83;100.00;100737.85;105758;1260;60338;-62
2023/09/10 20:54:21;;;;;;;12.00;8.20;;;;;;;12.72;100.00;100735.81;106029;1259;60913;-64
2023/09/10 20:56:49;;;;;;;11.70;7.90;;;;;;;12.63;100.00;100736.20;105654;1258;73859;-60
2023/09/10 20:59:16;;;;;;;11.00;7.40;;;;;;;12.55;100.00;100737.84;106098;1254;66199;-63
2023/09/10 21:01:51;;;;;;;9.90;7.50;;;;;;;12.49;100.00;100735.15;106659;1248;72664;-61
2023/09/10 21:04:18;;;;;;;16.50;8.30;;;;;;;12.45;100.00;100744.20;107722;1263;60413;-65
2023/09/10 21:06:46;;;;;;;10.40;6.60;;;;;;;12.44;100.00;100747.65;105218;1263;59163;-62
2023/09/10 21:09:13;;;;;;;8.10;6.00;;;;;;;12.45;100.00;100748.05;105199;1261;73775;-63
2023/09/10 21:11:40;;;;;;;9.90;7.00;;;;;;;12.46;100.00;100753.45;105334;1263;67275;-62
2023/09/10 21:14:07;;;;;;;9.50;6.90;;;;;;;12.51;100.00;100753.42;105191;1263;72717;-61
2023/09/10 21:16:34;;;;;;;11.30;7.60;;;;;;;12.55;100.00;100758.35;105407;1266;60195;-63
2023/09/10 21:19:02;;;;;;;10.50;7.90;;;;;;;12.54;100.00;100761.23;105398;1262;60464;-62
2023/09/10 21:21:28;;;;;;;9.60;7.10;;;;;;;12.50;100.00;100760.60;105331;1260;73189;-61
2023/09/10 21:23:55;;;;;;;9.90;7.30;;;;;;;12.46;100.00;100757.45;105155;1263;66029;-61
2023/09/10 21:26:23;;;;;;;10.00;6.80;;;;;;;12.42;100.00;100764.08;105203;1263;72701;-63
2023/09/10 21:28:50;;;;;;;8.70;5.80;;;;;;;12.37;100.00;100761.77;105378;1260;60429;-62
2023/09/10 21:31:17;;;;;;;9.60;6.80;;;;;;;12.32;100.00;100758.08;105211;1260;60664;-62
2023/09/10 21:33:44;;;;;;;8.50;6.40;;;;;;;12.24;100.00;100755.33;105270;1263;73702;-60
2023/09/10 21:36:11;;;;;;;9.70;6.80;;;;;;;12.16;100.00;100757.86;105321;1263;66052;-60
2023/09/10 21:38:38;;;;;;;10.00;6.70;;;;;;;12.07;100.00;100755.93;105417;1263;71349;-63
2023/09/10 21:41:05;;;;;;;10.60;7.00;;;;;;;12.01;100.00;100755.02;105180;1267;61372;-64
2023/09/10 21:43:32;;;;;;;11.20;7.20;;;;;;;11.92;100.00;100756.98;105021;1264;60368;-62
2023/09/10 21:46:05;;;;;;;9.00;6.70;;;;;;;11.85;100.00;100752.23;105227;1260;72674;-66
2023/09/10 21:48:32;;;;;;;10.60;7.70;;;;;;;11.82;100.00;100752.42;105440;1260;67367;-66
2023/09/10 21:50:59;;;;;;;9.50;7.50;;;;;;;11.82;100.00;100752.80;105154;1273;73337;-65
2023/09/10 21:53:26;;;;;;;10.10;7.20;;;;;;;11.81;100.00;100750.11;105236;1261;61910;-64
2023/09/10 21:55:53;;;;;;;11.70;7.50;;;;;;;11.78;100.00;100745.94;105095;1273;60415;-62
2023/09/10 21:58:20;;;;;;;9.70;7.20;;;;;;;11.74;100.00;100744.14;105572;1263;72546;-63
2023/09/10 22:00:47;;;;;;;11.50;7.80;;;;;;;11.72;100.00;100744.89;104937;1263;65088;-62
2023/09/10 22:03:14;;;;;;;11.40;8.30;;;;;;;11.69;100.00;100746.84;105167;1273;71644;-63
2023/09/10 22:05:41;;;;;;;10.60;8.30;;;;;;;11.67;100.00;100746.98;105307;1263;60374;-68
2023/09/10 22:08:11;;;;;;;12.70;8.80;;;;;;;11.66;100.00;100750.23;105062;1263;60470;-64
2023/09/10 22:10:38;;;;;;;12.60;8.70;;;;;;;11.65;100.00;100754.22;105536;1260;73797;-64
2023/09/10 22:13:05;;;;;;;14.50;9.10;;;;;;;11.64;100.00;100745.98;105193;1259;66519;-63
2023/09/10 22:15:32;;;;;;;14.90;10.10;;;;;;;11.63;100.00;100746.42;105058;1261;71475;-69
2023/09/10 22:17:59;;;;;;;14.70;10.50;;;;;;;11.66;100.00;100747.52;105436;1266;60483;-69
2023/09/10 22:20:26;;;;;;;13.80;10.20;;;;;;;11.69;100.00;100743.67;105079;1263;60452;-64
2023/09/10 22:22:55;;;;;;;15.70;11.20;;;;;;;11.73;100.00;100746.05;105241;1263;73688;-65
2023/09/10 22:25:23;;;;;;;17.10;12.00;;;;;;;11.77;100.00;100746.92;105257;1263;67143;-65
2023/09/10 22:27:52;;;;;;;19.50;13.10;;;;;;;11.80;100.00;100747.93;105612;1263;71125;-67
2023/09/10 22:30:19;;;;;;;13.80;11.50;;;;;;;11.83;100.00;100746.59;106416;1259;60533;-66
2023/09/10 22:32:47;;;;;;;17.30;13.60;;;;;;;11.83;100.00;100744.34;105029;1263;60441;-66
2023/09/10 22:35:14;;;;;;;15.50;12.20;;;;;;;11.81;100.00;100740.29;105291;1260;73940;-65
2023/09/10 22:37:41;;;;;;;14.40;10.50;;;;;;;11.79;100.00;100739.77;105412;1263;66736;-64
2023/09/10 22:40:10;;;;;;;18.00;12.50;;;;;;;11.74;100.00;100737.64;105613;1260;72520;-65
2023/09/10 22:42:37;;;;;;;17.90;12.20;;;;;;;11.67;100.00;100735.89;105275;1263;60548;-61
2023/09/10 22:45:05;;;;;;;18.80;14.10;;;;;;;11.59;100.00;100733.33;105400;1260;60454;-62
2023/09/10 22:47:33;;;;;;;19.20;14.30;;;;;;;11.51;100.00;100732.35;105282;1259;72600;-64
2023/09/10 22:50:02;;;;;;;20.90;16.10;;;;;;;11.43;100.00;100733.27;105532;1261;64817;-66
2023/09/10 22:52:29;;;;;;;20.40;15.50;;;;;;;11.35;100.00;100729.98;105600;1259;71578;-64
2023/09/10 22:54:56;;;;;;;22.80;16.50;;;;;;;11.28;100.00;100731.55;105047;1261;61879;-63
2023/09/10 22:57:23;;;;;;;24.10;17.50;;;;;;;11.20;100.00;100730.98;105308;1264;60358;-63
2023/09/10 22:59:50;;;;;;;24.80;19.40;;;;;;;11.16;100.00;100732.55;105318;1263;73818;-60
2023/09/10 23:02:17;;;;;;;26.00;19.20;;;;;;;11.10;100.00;100739.44;105448;1263;65672;-65
2023/09/10 23:04:44;;;;;;;26.60;19.70;;;;;;;11.05;100.00;100740.72;105706;1259;72087;-63
2023/09/10 23:07:12;;;;;;;28.00;20.40;;;;;;;10.98;100.00;100733.72;105567;1263;61612;-63
2023/09/10 23:09:38;;;;;;;29.50;21.60;;;;;;;10.92;100.00;100738.06;105658;1260;60555;-63
2023/09/10 23:12:06;;;;;;;26.60;20.60;;;;;;;10.85;100.00;100733.73;105318;1263;73846;-63
2023/09/10 23:14:33;;;;;;;27.40;20.10;;;;;;;10.81;100.00;100732.30;105268;1263;66029;-65
2023/09/10 23:17:00;;;;;;;31.10;22.30;;;;;;;10.79;100.00;100735.34;105683;1264;72688;-63
2023/09/10 23:19:27;;;;;;;30.50;22.80;;;;;;;10.76;100.00;100738.08;105719;1263;60514;-63
2023/09/10 23:21:54;;;;;;;31.00;23.60;;;;;;;10.74;100.00;100739.42;105289;1260;60544;-62
2023/09/10 23:24:21;;;;;;;27.90;19.90;;;;;;;10.70;100.00;100736.31;105600;1260;73860;-63
2023/09/10 23:26:51;;;;;;;26.00;19.30;;;;;;;10.66;100.00;100735.00;105382;1262;66037;-61
2023/09/10 23:29:18;;;;;;;26.90;19.90;;;;;;;10.65;100.00;100735.71;105250;1260;72619;-63
2023/09/10 23:31:47;;;;;;;24.90;18.30;;;;;;;10.62;100.00;100736.88;105286;1264;60381;-63
2023/09/10 23:34:19;;;;;;;25.10;17.80;;;;;;;10.59;100.00;100732.16;106035;1260;60543;-69
2023/09/10 23:36:47;;;;;;;27.80;20.10;;;;;;;10.57;100.00;100729.86;105095;1260;74383;-65
2023/09/10 23:39:14;;;;;;;23.60;17.80;;;;;;;10.55;100.00;100735.77;105258;1261;67346;-61
2023/09/10 23:41:41;;;;;;;22.70;16.90;;;;;;;10.53;100.00;100735.49;105250;1273;72565;-61
2023/09/10 23:44:08;;;;;;;22.30;17.20;;;;;;;10.51;100.00;100736.30;105273;1263;60490;-61
2023/09/10 23:46:36;;;;;;;23.20;17.40;;;;;;;10.46;100.00;100739.41;105370;1263;59484;-63
2023/09/10 23:49:03;;;;;;;24.10;18.30;;;;;;;10.41;100.00;100742.04;105265;1263;73661;-61
2023/09/10 23:51:31;;;;;;;23.10;19.20;;;;;;;10.36;100.00;100741.36;105291;1260;67211;-63
2023/09/10 23:53:57;;;;;;;26.90;18.80;;;;;;;10.31;100.00;100746.60;105250;1264;73113;-63
2023/09/10 23:56:24;;;;;;;22.70;17.30;;;;;;;10.27;100.00;100745.15;105475;1263;60613;-62
2023/09/10 23:58:51;;;;;;;24.20;16.80;;;;;;;10.23;100.00;100746.54;105185;1263;60447;-64
